createdAt,value
2022-12-26T00:02:31.029Z,11.44
2022-12-26T00:06:33.693Z,11.46
2022-12-26T00:10:35.223Z,11.48
2022-12-26T00:14:36.851Z,11.52
2022-12-26T00:18:39.453Z,11.58
2022-12-26T00:22:42.056Z,11.55
2022-12-26T00:26:43.808Z,11.56
2022-12-26T00:30:45.198Z,11.60
2022-12-26T00:34:46.573Z,11.58
2022-12-26T00:38:48.720Z,11.56
2022-12-26T00:42:50.110Z,11.54
2022-12-26T00:46:51.576Z,11.56
2022-12-26T00:50:53.193Z,11.50
2022-12-26T00:54:55.042Z,11.52
2022-12-26T00:58:56.375Z,11.52
2022-12-26T01:02:57.935Z,11.49
2022-12-26T01:06:59.442Z,11.49
2022-12-26T01:11:06.872Z,11.44
2022-12-26T01:15:09.127Z,11.41
2022-12-26T01:19:13.057Z,11.41
2022-12-26T01:23:14.986Z,11.42
2022-12-26T01:27:16.808Z,11.45
2022-12-26T01:31:19.575Z,11.44
2022-12-26T01:35:20.956Z,11.41
2022-12-26T01:39:22.886Z,11.41
2022-12-26T01:43:24.573Z,11.36
2022-12-26T01:47:39.648Z,11.34
2022-12-26T01:51:45.289Z,11.31
2022-12-26T01:55:52.098Z,11.32
2022-12-26T01:59:56.274Z,11.28
2022-12-26T02:04:17.714Z,11.25
2022-12-26T02:08:29.096Z,11.21
2022-12-26T02:12:38.795Z,11.20
2022-12-26T02:16:41.070Z,11.21
2022-12-26T02:21:04.564Z,11.22
2022-12-26T02:25:24.811Z,11.19
2022-12-26T02:29:54.134Z,11.22
2022-12-26T02:34:12.755Z,11.25
2022-12-26T02:38:56.325Z,11.26
2022-12-26T02:43:12.443Z,11.26
2022-12-26T02:47:16.981Z,11.22
2022-12-26T02:51:41.054Z,11.11
2022-12-26T02:56:05.251Z,11.11
2022-12-26T03:00:37.484Z,11.00
2022-12-26T03:05:00.296Z,10.98
2022-12-26T03:09:24.554Z,10.95
2022-12-26T03:13:33.087Z,10.92
2022-12-26T03:17:42.544Z,10.95
2022-12-26T03:21:46.835Z,10.89
2022-12-26T03:26:12.414Z,10.86
2022-12-26T03:30:32.453Z,10.90
2022-12-26T03:34:37.624Z,10.95
2022-12-26T03:38:56.076Z,10.98
2022-12-26T03:43:35.821Z,10.98
2022-12-26T03:48:02.905Z,11.02
2022-12-26T03:52:39.558Z,11.02
2022-12-26T03:57:04.829Z,11.07
2022-12-26T04:01:35.815Z,11.06
2022-12-26T04:05:58.836Z,11.11
2022-12-26T04:10:29.665Z,11.16
2022-12-26T04:15:06.334Z,11.22
2022-12-26T04:19:49.072Z,11.26
2022-12-26T04:24:10.104Z,11.26
2022-12-26T04:28:32.309Z,11.32
2022-12-26T04:32:59.020Z,11.34
2022-12-26T04:37:23.975Z,11.35
2022-12-26T04:41:46.267Z,11.35
2022-12-26T04:45:48.868Z,11.30
2022-12-26T04:50:08.993Z,11.31
2022-12-26T04:54:10.801Z,11.31
2022-12-26T04:58:12.381Z,11.33
2022-12-26T05:02:32.593Z,11.32
2022-12-26T05:07:00.154Z,11.28
2022-12-26T05:11:02.911Z,11.22
2022-12-26T05:15:04.689Z,11.17
2022-12-26T05:19:25.364Z,11.05
2022-12-26T05:23:46.556Z,10.87
2022-12-26T05:28:07.798Z,10.74
2022-12-26T05:32:09.148Z,10.60
2022-12-26T05:36:10.707Z,10.50
2022-12-26T05:40:12.143Z,10.41
2022-12-26T05:44:13.671Z,10.38
2022-12-26T05:48:15.010Z,10.30
2022-12-26T05:52:16.766Z,10.23
2022-12-26T05:56:19.224Z,10.17
2022-12-26T06:00:20.982Z,10.13
2022-12-26T06:04:22.459Z,10.08
2022-12-26T06:08:23.809Z,10.06
2022-12-26T06:12:25.245Z,10.00
2022-12-26T06:16:26.620Z,10.04
2022-12-26T06:20:27.963Z,10.03
2022-12-26T06:24:29.423Z,10.05
2022-12-26T06:28:31.051Z,10.06
2022-12-26T06:32:33.878Z,10.08
2022-12-26T06:36:35.220Z,10.11
2022-12-26T06:40:41.401Z,10.10
2022-12-26T06:44:42.723Z,10.15
2022-12-26T06:48:44.145Z,10.15
2022-12-26T06:52:45.443Z,10.16
2022-12-26T06:56:46.834Z,10.12
2022-12-26T07:00:48.234Z,10.14
2022-12-26T07:04:49.896Z,10.16
2022-12-26T07:08:52.987Z,10.15
2022-12-26T07:12:54.426Z,10.14
2022-12-26T07:16:55.847Z,10.12
2022-12-26T07:20:57.275Z,10.10
2022-12-26T07:24:58.794Z,10.11
2022-12-26T07:29:00.426Z,10.09
2022-12-26T07:33:01.784Z,10.09
2022-12-26T07:37:04.027Z,10.07
2022-12-26T07:41:25.489Z,10.09
2022-12-26T07:45:28.583Z,10.07
2022-12-26T07:49:30.011Z,10.06
2022-12-26T07:53:31.755Z,10.04
2022-12-26T07:57:49.408Z,10.03
2022-12-26T08:01:51.481Z,9.98
2022-12-26T08:05:53.003Z,9.97
2022-12-26T08:09:54.393Z,9.97
2022-12-26T08:13:55.677Z,9.95
2022-12-26T08:17:57.014Z,9.94
2022-12-26T08:21:58.420Z,9.92
2022-12-26T08:26:05.052Z,9.91
2022-12-26T08:30:06.978Z,9.91
2022-12-26T08:34:08.451Z,9.93
2022-12-26T08:38:09.775Z,9.92
2022-12-26T08:42:11.178Z,9.96
2022-12-26T08:46:13.122Z,10.01
2022-12-26T08:50:14.652Z,10.03
2022-12-26T08:54:15.979Z,10.06
2022-12-26T08:58:17.779Z,10.09
2022-12-26T09:02:19.293Z,10.14
2022-12-26T09:06:21.539Z,10.16
2022-12-26T09:10:22.882Z,10.16
2022-12-26T09:14:25.178Z,10.16
2022-12-26T09:18:26.649Z,10.18
2022-12-26T09:22:46.551Z,10.22
2022-12-26T09:26:48.041Z,10.24
2022-12-26T09:30:49.505Z,10.27
2022-12-26T09:34:50.825Z,10.29
2022-12-26T09:38:54.091Z,10.32
2022-12-26T09:43:28.926Z,10.35
2022-12-26T09:47:34.862Z,10.37
2022-12-26T09:51:38.285Z,10.36
2022-12-26T09:55:42.563Z,10.34
2022-12-26T09:59:58.768Z,10.37
2022-12-26T10:04:02.277Z,10.39
2022-12-26T10:08:24.911Z,10.44
2022-12-26T10:12:35.781Z,10.47
2022-12-26T10:16:44.742Z,10.48
2022-12-26T10:21:26.303Z,10.57
2022-12-26T10:25:43.337Z,10.65
2022-12-26T10:30:03.173Z,10.73
2022-12-26T10:34:08.074Z,10.80
2022-12-26T10:38:34.462Z,10.87
2022-12-26T10:42:41.779Z,10.95
2022-12-26T10:47:38.065Z,11.00
2022-12-26T10:51:39.513Z,11.02
2022-12-26T10:55:41.127Z,11.06
2022-12-26T10:59:51.813Z,11.07
2022-12-26T11:03:58.690Z,11.12
2022-12-26T11:08:09.267Z,11.13
2022-12-26T11:12:25.037Z,11.20
2022-12-26T11:16:33.751Z,11.30
2022-12-26T11:20:35.510Z,11.33
2022-12-26T11:24:36.968Z,11.33
2022-12-26T11:28:38.635Z,11.34
2022-12-26T11:32:41.570Z,11.32
2022-12-26T11:36:50.376Z,11.28
2022-12-26T11:41:11.707Z,11.33
2022-12-26T11:45:13.428Z,11.35
2022-12-26T11:49:22.840Z,11.30
2022-12-26T11:53:24.395Z,11.33
2022-12-26T11:57:31.890Z,11.28
2022-12-26T12:01:33.653Z,11.26
2022-12-26T12:05:50.749Z,11.26
2022-12-26T12:10:03.151Z,11.26
2022-12-26T12:14:23.105Z,11.19
2022-12-26T12:18:35.694Z,11.15
2022-12-26T12:23:10.983Z,11.09
2022-12-26T12:27:28.918Z,11.01
2022-12-26T12:31:36.490Z,10.93
2022-12-26T12:36:07.864Z,10.91
2022-12-26T12:40:36.181Z,10.87
2022-12-26T12:45:04.820Z,10.92
2022-12-26T12:49:13.283Z,10.93
2022-12-26T12:53:30.523Z,10.94
2022-12-26T12:57:56.335Z,10.94
2022-12-26T13:02:15.340Z,10.95
2022-12-26T13:06:49.451Z,10.90
2022-12-26T13:11:06.263Z,10.85
2022-12-26T13:15:31.012Z,10.83
2022-12-26T13:19:40.673Z,10.82
2022-12-26T13:24:23.676Z,10.81
2022-12-26T13:28:28.544Z,10.77
2022-12-26T13:32:32.133Z,10.78
2022-12-26T13:36:56.098Z,10.82
2022-12-26T13:41:21.143Z,10.86
2022-12-26T13:45:38.345Z,10.90
2022-12-26T13:49:42.934Z,10.91
2022-12-26T13:54:09.291Z,10.84
2022-12-26T13:58:43.763Z,10.83
2022-12-26T14:03:21.430Z,10.81
2022-12-26T14:07:55.347Z,10.72
2022-12-26T14:12:25.932Z,10.64
2022-12-26T14:21:53.031Z,10.39
2022-12-26T14:26:00.849Z,10.35
2022-12-26T14:30:20.430Z,10.31
2022-12-26T14:34:34.311Z,10.26
2022-12-26T14:38:48.059Z,10.18
2022-12-26T14:43:17.827Z,10.14
2022-12-26T14:47:45.853Z,10.10
2022-12-26T14:51:47.486Z,10.07
2022-12-26T14:55:50.929Z,10.07
2022-12-26T15:00:13.464Z,10.04
2022-12-26T15:04:37.227Z,9.99
2022-12-26T15:08:53.658Z,9.97
2022-12-26T15:13:20.012Z,9.96
2022-12-26T15:17:33.607Z,9.93
2022-12-26T15:21:37.894Z,9.80
2022-12-26T15:26:00.820Z,9.51
2022-12-26T15:30:21.874Z,9.30
2022-12-26T15:34:47.615Z,9.19
2022-12-26T15:39:04.637Z,9.06
2022-12-26T15:43:30.902Z,8.95
2022-12-26T15:47:53.280Z,8.87
2022-12-26T15:52:10.320Z,8.79
2022-12-26T15:56:27.106Z,8.69
2022-12-26T16:00:39.609Z,8.63
2022-12-26T16:04:46.809Z,8.55
2022-12-26T16:08:59.330Z,8.53
2022-12-26T16:13:12.951Z,8.45
2022-12-26T16:17:14.367Z,8.43
2022-12-26T16:21:36.973Z,8.42
2022-12-26T16:25:38.431Z,8.52
2022-12-26T16:29:46.804Z,8.59
2022-12-26T16:33:50.461Z,8.59
2022-12-26T16:37:54.226Z,8.51
2022-12-26T16:42:05.281Z,8.33
2022-12-26T16:46:09.671Z,8.18
2022-12-26T16:50:20.815Z,8.05
2022-12-26T16:54:22.185Z,7.96
2022-12-26T16:58:28.784Z,7.86
2022-12-26T17:02:34.299Z,7.81
2022-12-26T17:06:39.543Z,7.79
2022-12-26T17:10:47.700Z,7.73
2022-12-26T17:14:50.949Z,7.66
2022-12-26T17:18:54.890Z,7.62
2022-12-26T17:22:56.618Z,7.63
2022-12-26T17:27:09.031Z,7.57
2022-12-26T17:31:16.316Z,7.56
2022-12-26T17:35:33.283Z,7.55
2022-12-26T17:39:42.965Z,7.52
2022-12-26T17:43:45.629Z,7.54
2022-12-26T17:47:46.992Z,7.45
2022-12-26T17:51:55.637Z,7.47
2022-12-26T17:56:08.055Z,7.43
2022-12-26T18:00:17.223Z,7.38
2022-12-26T18:04:18.922Z,7.38
2022-12-26T18:08:31.853Z,7.39
2022-12-26T18:12:33.210Z,7.37
2022-12-26T18:16:36.655Z,7.40
2022-12-26T18:20:37.961Z,7.38
2022-12-26T18:24:39.308Z,7.38
2022-12-26T18:28:40.797Z,7.35
2022-12-26T18:32:42.204Z,7.34
2022-12-26T18:36:43.629Z,7.32
2022-12-26T18:40:48.239Z,7.36
2022-12-26T18:44:49.645Z,7.36
2022-12-26T18:48:53.954Z,7.39
2022-12-26T18:52:55.582Z,7.39
2022-12-26T18:56:57.239Z,7.36
2022-12-26T19:01:01.900Z,7.35
2022-12-26T19:05:03.605Z,7.34
2022-12-26T19:09:05.061Z,7.31
2022-12-26T19:13:06.789Z,7.31
2022-12-26T19:17:08.171Z,7.28
2022-12-26T19:21:14.717Z,7.25
2022-12-26T19:25:16.983Z,7.20
2022-12-26T19:29:18.360Z,7.13
2022-12-26T19:33:19.781Z,7.12
2022-12-26T19:37:21.199Z,7.08
2022-12-26T19:41:22.704Z,7.04
2022-12-26T19:45:24.151Z,7.03
2022-12-26T19:49:31.872Z,7.01
2022-12-26T19:53:37.082Z,7.00
2022-12-26T19:57:38.409Z,6.96
2022-12-26T20:01:40.678Z,6.94
2022-12-26T20:05:42.296Z,6.89
2022-12-26T20:09:44.156Z,6.85
2022-12-26T20:13:46.023Z,6.79
2022-12-26T20:17:49.123Z,6.74
2022-12-26T20:21:50.851Z,6.68
2022-12-26T20:25:52.390Z,6.57
2022-12-26T20:29:53.670Z,6.46
2022-12-26T20:33:55.042Z,6.36
2022-12-26T20:37:56.352Z,6.24
2022-12-26T20:41:57.736Z,6.10
2022-12-26T20:46:08.719Z,5.95
2022-12-26T20:50:10.594Z,5.80
2022-12-26T20:54:14.059Z,5.68
2022-12-26T20:58:18.124Z,5.50
2022-12-26T21:02:21.970Z,5.23
2022-12-26T21:06:27.395Z,5.10
2022-12-26T21:10:29.721Z,4.96
2022-12-26T21:14:31.136Z,4.86
2022-12-26T21:18:32.442Z,4.78
2022-12-26T21:22:33.920Z,4.75
2022-12-26T21:26:37.369Z,4.71
2022-12-26T21:30:38.831Z,4.64
2022-12-26T21:34:40.374Z,4.53
2022-12-26T21:38:41.869Z,4.42
2022-12-26T21:42:43.258Z,4.27
2022-12-26T21:46:44.589Z,4.07
2022-12-26T21:50:45.955Z,3.94
2022-12-26T21:55:05.990Z,3.84
2022-12-26T21:59:28.198Z,3.73
2022-12-26T22:03:48.219Z,3.61
2022-12-26T22:07:56.815Z,3.54
2022-12-26T22:12:17.035Z,3.56
2022-12-26T22:16:19.817Z,3.42
2022-12-26T22:20:21.350Z,3.28
2022-12-26T22:24:22.785Z,3.21
2022-12-26T22:28:24.628Z,3.14
2022-12-26T22:32:25.933Z,3.09
2022-12-26T22:36:28.919Z,3.07
2022-12-26T22:40:30.280Z,3.02
2022-12-26T22:44:31.608Z,3.05
2022-12-26T22:48:33.010Z,3.03
2022-12-26T22:52:34.532Z,2.92
2022-12-26T22:56:35.979Z,2.99
2022-12-26T23:00:37.831Z,2.98
2022-12-26T23:04:39.456Z,2.94
2022-12-26T23:08:41.099Z,2.91
2022-12-26T23:12:45.383Z,2.86
2022-12-26T23:16:57.335Z,2.81
2022-12-26T23:21:25.799Z,2.69
2022-12-26T23:25:27.191Z,2.70
2022-12-26T23:29:47.303Z,2.70
2022-12-26T23:33:48.634Z,2.63
2022-12-26T23:37:50.159Z,2.63
2022-12-26T23:41:52.296Z,2.61
2022-12-26T23:45:53.897Z,2.65
2022-12-26T23:49:55.440Z,2.64
2022-12-26T23:53:57.092Z,2.65
2022-12-26T23:57:58.633Z,2.62
